Time;durP1;ratioP1;P1;durP2;ratioP2;P2;SDS_P1;SDS_P2;PMS_P1;PMS_P2;Temp;Humidity;BMP_temperature;BMP_pressure;BME280_temperature;BME280_humidity;BME280_pressure;Samples;Min_cycle;Max_cycle;Signal;HPM_P1;HPM_P2
2023/05/23 00:01:57;;;;;;;1.52;1.27;;;18.30;73.00;;;;;;5030056;28;20469;-70
2023/05/23 00:04:25;;;;;;;1.52;1.33;;;18.20;73.00;;;;;;5031920;28;20030;-71
2023/05/23 00:06:52;;;;;;;2.15;1.48;;;18.20;73.00;;;;;;5031818;28;20037;-71
2023/05/23 00:09:18;;;;;;;1.55;1.30;;;18.30;73.00;;;;;;5032379;28;20028;-71
2023/05/23 00:11:44;;;;;;;2.42;1.38;;;18.30;73.00;;;;;;5030465;28;20112;-71
2023/05/23 00:14:13;;;;;;;3.92;1.83;;;18.30;73.00;;;;;;5031961;28;20488;-70
2023/05/23 00:16:43;;;;;;;2.35;1.45;;;18.30;73.00;;;;;;5030493;28;20068;-66
2023/05/23 00:19:10;;;;;;;2.58;1.65;;;18.20;73.20;;;;;;5028758;28;20056;-67
2023/05/23 00:21:36;;;;;;;3.83;2.95;;;18.20;73.30;;;;;;5027941;28;20250;-66
2023/05/23 00:24:03;;;;;;;4.20;1.95;;;18.20;73.50;;;;;;5030426;28;20033;-66
2023/05/23 00:26:29;;;;;;;2.70;1.50;;;18.20;73.50;;;;;;5028577;28;20080;-66
2023/05/23 00:28:55;;;;;;;3.72;2.25;;;18.10;73.50;;;;;;5030197;28;20489;-65
2023/05/23 00:31:21;;;;;;;4.43;1.63;;;18.10;73.60;;;;;;5029424;28;20106;-67
2023/05/23 00:33:47;;;;;;;3.58;1.90;;;18.20;73.60;;;;;;5037797;28;20167;-67
2023/05/23 00:36:13;;;;;;;3.28;2.05;;;18.20;73.70;;;;;;5033394;28;20112;-67
2023/05/23 00:38:38;;;;;;;1.70;1.50;;;18.10;73.90;;;;;;5029201;28;20072;-66
2023/05/23 00:41:04;;;;;;;2.55;1.98;;;18.10;74.10;;;;;;5028953;28;20151;-67
2023/05/23 00:43:30;;;;;;;3.15;1.67;;;18.10;74.20;;;;;;5027702;28;20041;-71
2023/05/23 00:45:57;;;;;;;2.28;1.63;;;18.00;74.20;;;;;;5035883;28;20018;-71
2023/05/23 00:48:24;;;;;;;1.88;1.15;;;18.00;74.40;;;;;;5020062;28;20389;-71
2023/05/23 00:50:50;;;;;;;1.98;1.52;;;18.00;74.50;;;;;;5030680;28;20017;-66
2023/05/23 00:53:16;;;;;;;4.63;2.40;;;18.00;74.50;;;;;;5029182;28;20036;-67
2023/05/23 00:55:43;;;;;;;4.15;2.53;;;18.00;74.60;;;;;;5029897;28;20179;-71
2023/05/23 00:58:09;;;;;;;5.25;2.03;;;18.00;75.00;;;;;;5030648;28;20033;-71
2023/05/23 01:00:37;;;;;;;2.22;1.77;;;17.90;75.40;;;;;;5029348;28;20022;-71
2023/05/23 01:03:03;;;;;;;4.15;2.30;;;17.90;75.60;;;;;;5029673;28;20034;-71
2023/05/23 01:05:29;;;;;;;4.88;2.20;;;17.90;75.80;;;;;;5030519;28;20014;-71
2023/05/23 01:07:55;;;;;;;2.28;1.58;;;17.80;75.70;;;;;;5028318;28;20032;-71
2023/05/23 01:10:28;;;;;;;4.72;2.45;;;17.80;75.70;;;;;;5026281;28;20026;-71
2023/05/23 01:13:04;;;;;;;2.97;1.60;;;17.80;75.80;;;;;;5028262;28;20040;-71
2023/05/23 01:16:08;;;;;;;4.80;1.92;;;17.80;75.90;;;;;;5027373;28;20084;-71
2023/05/23 01:19:07;;;;;;;2.17;1.48;;;17.80;76.00;;;;;;5022940;28;20076;-67
2023/05/23 01:21:34;;;;;;;1.70;1.50;;;17.70;76.10;;;;;;5012756;28;20033;-66
2023/05/23 01:24:25;;;;;;;3.75;2.45;;;17.70;76.30;;;;;;5029528;28;20487;-66
2023/05/23 01:27:14;;;;;;;3.40;2.45;;;17.70;76.30;;;;;;5028570;28;20044;-71
2023/05/23 01:29:46;;;;;;;8.80;2.92;;;17.60;76.70;;;;;;5027528;28;20384;-66
2023/05/23 01:32:14;;;;;;;6.13;2.08;;;17.50;76.80;;;;;;5029211;28;20026;-67
2023/05/23 01:34:41;;;;;;;4.55;2.13;;;17.50;77.10;;;;;;5028317;28;20036;-66
2023/05/23 01:37:13;;;;;;;2.58;1.63;;;17.40;77.20;;;;;;5027593;28;20025;-67
2023/05/23 01:39:39;;;;;;;5.38;1.73;;;17.40;77.10;;;;;;5028366;28;20024;-67
2023/05/23 01:42:05;;;;;;;4.75;1.98;;;17.40;77.10;;;;;;5029663;28;20473;-67
2023/05/23 01:44:34;;;;;;;3.17;1.65;;;17.50;77.00;;;;;;5027324;28;20025;-68
2023/05/23 01:47:04;;;;;;;3.42;1.50;;;17.50;76.90;;;;;;5029045;28;20404;-67
2023/05/23 01:49:31;;;;;;;3.33;1.42;;;17.50;76.80;;;;;;5037863;28;20021;-67
2023/05/23 01:51:59;;;;;;;5.30;1.95;;;17.50;76.80;;;;;;5028036;28;20087;-67
2023/05/23 01:54:25;;;;;;;2.75;2.00;;;17.50;76.80;;;;;;5033126;28;20112;-67
2023/05/23 01:56:51;;;;;;;4.72;1.70;;;17.40;76.70;;;;;;5034810;28;20113;-66
2023/05/23 01:59:16;;;;;;;3.42;2.25;;;17.40;76.80;;;;;;5040967;28;20025;-67
2023/05/23 02:01:42;;;;;;;2.83;1.60;;;17.40;76.70;;;;;;5032130;28;20044;-67
2023/05/23 02:04:08;;;;;;;1.45;1.05;;;17.40;76.70;;;;;;5029157;28;20021;-71
2023/05/23 02:06:34;;;;;;;1.80;1.08;;;17.40;76.90;;;;;;5032058;28;20026;-71
2023/05/23 02:08:59;;;;;;;5.57;2.00;;;17.30;76.90;;;;;;5036129;28;20079;-71
2023/05/23 02:11:25;;;;;;;1.67;1.23;;;17.30;76.90;;;;;;5034380;28;20072;-71
2023/05/23 02:13:51;;;;;;;1.85;1.27;;;17.30;76.90;;;;;;5033480;28;20034;-71
2023/05/23 02:16:17;;;;;;;3.47;1.40;;;17.40;76.90;;;;;;5036886;28;20053;-71
2023/05/23 02:18:45;;;;;;;3.38;1.48;;;17.40;76.90;;;;;;5039866;28;20082;-71
2023/05/23 02:21:10;;;;;;;3.17;2.10;;;17.40;76.90;;;;;;5032786;28;20035;-66
2023/05/23 02:23:36;;;;;;;3.20;1.88;;;17.40;77.00;;;;;;5033011;28;20384;-66
2023/05/23 02:26:02;;;;;;;2.28;1.25;;;17.30;77.00;;;;;;5033127;28;20435;-67
2023/05/23 02:28:27;;;;;;;2.65;1.50;;;17.30;77.00;;;;;;5034424;28;20047;-71
2023/05/23 02:30:53;;;;;;;4.05;1.77;;;17.30;77.00;;;;;;5035523;28;20059;-71
2023/05/23 02:33:19;;;;;;;3.15;1.70;;;17.30;77.20;;;;;;5032442;28;20511;-71
2023/05/23 02:35:45;;;;;;;2.50;1.95;;;17.30;77.30;;;;;;5033701;28;20100;-70
2023/05/23 02:38:11;;;;;;;3.15;1.60;;;17.30;77.30;;;;;;5035896;28;20068;-71
2023/05/23 02:40:36;;;;;;;3.17;2.03;;;17.30;77.30;;;;;;5034289;28;20025;-71
2023/05/23 02:43:02;;;;;;;3.85;1.75;;;17.30;77.30;;;;;;5033420;28;20037;-71
2023/05/23 02:45:28;;;;;;;4.82;1.60;;;17.30;77.30;;;;;;5040221;28;20029;-71
2023/05/23 02:47:53;;;;;;;4.00;2.50;;;17.30;77.30;;;;;;5031361;28;20069;-71
2023/05/23 02:50:19;;;;;;;5.72;2.55;;;17.20;77.40;;;;;;5031851;28;20018;-70
2023/05/23 02:52:45;;;;;;;5.68;2.53;;;17.20;77.40;;;;;;5033164;28;20065;-70
2023/05/23 02:55:10;;;;;;;3.70;2.10;;;17.20;77.40;;;;;;5029817;28;20526;-70
2023/05/23 02:57:36;;;;;;;4.13;1.77;;;17.20;77.50;;;;;;5029162;28;20438;-70
2023/05/23 03:00:02;;;;;;;3.58;1.80;;;17.20;77.50;;;;;;5024313;28;20055;-70
2023/05/23 03:02:27;;;;;;;3.40;2.03;;;17.20;77.50;;;;;;5046778;28;20431;-70
2023/05/23 03:04:54;;;;;;;2.55;2.17;;;17.10;77.50;;;;;;5043531;28;20026;-71
2023/05/23 03:07:20;;;;;;;4.75;2.55;;;17.20;77.40;;;;;;5042903;28;20419;-67
2023/05/23 03:09:46;;;;;;;3.28;2.33;;;17.20;77.40;;;;;;5008183;28;20030;-71
2023/05/23 03:12:11;;;;;;;2.65;1.67;;;17.20;77.30;;;;;;5038375;28;20036;-71
2023/05/23 03:14:37;;;;;;;3.35;1.58;;;17.20;77.30;;;;;;5043108;28;20068;-70
2023/05/23 03:17:03;;;;;;;3.92;1.92;;;17.10;77.40;;;;;;5041852;28;20431;-71
2023/05/23 03:19:29;;;;;;;3.65;1.67;;;17.00;77.50;;;;;;5030047;28;20107;-72
2023/05/23 03:21:55;;;;;;;3.60;2.08;;;17.00;77.50;;;;;;5031174;28;20087;-72
2023/05/23 03:24:20;;;;;;;2.10;1.70;;;17.00;77.70;;;;;;5029649;28;20029;-72
2023/05/23 03:26:46;;;;;;;1.77;1.42;;;16.90;78.00;;;;;;5029464;28;20029;-72
2023/05/23 03:29:12;;;;;;;2.13;1.58;;;16.80;78.00;;;;;;5026383;28;20025;-69
2023/05/23 03:31:37;;;;;;;2.60;1.70;;;16.90;78.00;;;;;;5033917;28;20073;-72
2023/05/23 03:34:07;;;;;;;2.60;1.65;;;16.90;78.10;;;;;;5037477;28;20036;-72
2023/05/23 03:36:33;;;;;;;1.77;1.52;;;16.90;77.90;;;;;;5035813;28;20048;-71
2023/05/23 03:38:58;;;;;;;1.58;1.30;;;16.90;78.00;;;;;;5033526;28;20030;-71
2023/05/23 03:41:25;;;;;;;2.45;1.48;;;16.90;78.60;;;;;;5028631;28;20044;-71
2023/05/23 03:43:50;;;;;;;2.33;1.45;;;16.90;78.00;;;;;;5031225;28;20025;-71
2023/05/23 03:46:16;;;;;;;1.73;0.98;;;16.80;78.00;;;;;;5029170;28;20104;-71
2023/05/23 03:48:42;;;;;;;3.30;1.27;;;16.90;77.90;;;;;;5032325;28;20437;-66
2023/05/23 03:51:07;;;;;;;3.45;1.70;;;16.90;77.80;;;;;;5035977;28;20106;-67
2023/05/23 03:53:33;;;;;;;2.95;1.60;;;16.90;77.80;;;;;;5035758;28;20025;-67
2023/05/23 03:55:59;;;;;;;2.72;1.50;;;16.90;77.90;;;;;;5041423;28;20384;-67
2023/05/23 03:58:24;;;;;;;3.30;1.63;;;16.80;77.90;;;;;;5033650;28;20025;-66
2023/05/23 04:00:51;;;;;;;2.17;1.67;;;16.80;77.80;;;;;;5039023;28;20485;-66
2023/05/23 04:03:17;;;;;;;2.35;1.35;;;16.80;77.80;;;;;;5033062;28;20025;-70
2023/05/23 04:05:43;;;;;;;2.50;1.83;;;16.80;77.70;;;;;;5027689;28;20037;-70
2023/05/23 04:08:08;;;;;;;3.47;2.05;;;16.90;77.60;;;;;;5034982;28;20025;-70
2023/05/23 04:10:34;;;;;;;3.58;1.90;;;16.90;77.40;;;;;;5026651;28;20033;-71
2023/05/23 04:13:00;;;;;;;2.65;1.60;;;16.90;77.20;;;;;;5029533;28;20029;-71
2023/05/23 04:15:26;;;;;;;2.38;1.48;;;16.90;77.10;;;;;;5029964;28;20133;-71
2023/05/23 04:17:53;;;;;;;10.05;2.35;;;16.90;76.90;;;;;;5036292;28;20496;-71
2023/05/23 04:20:19;;;;;;;5.65;1.80;;;16.90;76.80;;;;;;5035297;28;20036;-67
2023/05/23 04:22:44;;;;;;;3.05;1.63;;;16.90;76.70;;;;;;5033721;28;20034;-66
2023/05/23 04:25:10;;;;;;;1.60;1.45;;;16.90;76.60;;;;;;5031986;28;20037;-66
2023/05/23 04:27:38;;;;;;;3.72;2.08;;;16.90;76.60;;;;;;5029400;28;20613;-70
2023/05/23 04:30:08;;;;;;;2.35;1.63;;;17.00;76.40;;;;;;5035332;28;20033;-71
2023/05/23 04:32:34;;;;;;;2.72;1.80;;;17.00;76.40;;;;;;5031890;28;20041;-71
2023/05/23 04:35:01;;;;;;;2.70;2.08;;;17.00;76.30;;;;;;5034914;28;20033;-71
2023/05/23 04:37:27;;;;;;;5.95;2.40;;;17.00;76.30;;;;;;5028531;28;20061;-71
2023/05/23 04:39:53;;;;;;;6.05;2.20;;;16.90;76.40;;;;;;5032001;28;20025;-66
2023/05/23 04:42:23;;;;;;;5.82;2.38;;;16.90;76.50;;;;;;5039706;28;20043;-66
2023/05/23 04:44:50;;;;;;;2.60;1.90;;;16.80;76.50;;;;;;5032818;28;20033;-66
2023/05/23 04:47:16;;;;;;;8.38;2.65;;;16.80;76.40;;;;;;5028101;28;20028;-71
2023/05/23 04:49:42;;;;;;;5.13;3.38;;;16.80;76.30;;;;;;5028697;28;20034;-67
2023/05/23 04:52:08;;;;;;;5.63;2.85;;;16.80;76.30;;;;;;5029135;28;20033;-66
2023/05/23 04:54:35;;;;;;;10.73;2.38;;;16.80;76.30;;;;;;5030070;28;20151;-67
2023/05/23 04:57:01;;;;;;;5.78;2.08;;;16.80;76.30;;;;;;5028852;28;20026;-66
2023/05/23 04:59:26;;;;;;;5.93;1.92;;;16.70;76.30;;;;;;5023517;28;20061;-66
2023/05/23 05:01:52;;;;;;;5.80;2.38;;;16.70;76.30;;;;;;5027705;28;20031;-67
2023/05/23 05:04:18;;;;;;;3.65;2.25;;;16.70;76.30;;;;;;5015509;28;20022;-67
2023/05/23 05:06:43;;;;;;;4.45;2.22;;;16.70;76.40;;;;;;5032931;28;20463;-67
2023/05/23 05:09:09;;;;;;;1.80;1.40;;;16.70;76.40;;;;;;5029168;28;20431;-67
2023/05/23 05:11:35;;;;;;;4.93;2.20;;;16.70;76.30;;;;;;5029267;28;20030;-68
2023/05/23 05:14:00;;;;;;;6.40;2.42;;;16.70;76.20;;;;;;5028663;28;20164;-68
2023/05/23 05:16:26;;;;;;;3.45;1.65;;;16.60;76.20;;;;;;5029483;28;20061;-67
2023/05/23 05:18:52;;;;;;;6.70;2.70;;;16.60;76.40;;;;;;5028777;28;20045;-67
2023/05/23 05:21:17;;;;;;;5.25;2.88;;;16.50;76.60;;;;;;5030466;28;20033;-67
2023/05/23 05:23:43;;;;;;;2.83;2.15;;;16.40;76.90;;;;;;5029610;28;20026;-67
2023/05/23 05:26:09;;;;;;;6.32;2.90;;;16.30;77.00;;;;;;5027144;28;20034;-68
2023/05/23 05:28:35;;;;;;;5.13;1.58;;;16.20;77.20;;;;;;5028938;28;20044;-72
2023/05/23 05:31:03;;;;;;;4.28;1.67;;;16.20;77.40;;;;;;5028709;28;20069;-72
2023/05/23 05:33:34;;;;;;;9.90;2.17;;;16.20;77.50;;;;;;5028520;28;20025;-67
2023/05/23 05:36:03;;;;;;;3.83;1.63;;;16.20;77.50;;;;;;5028892;28;20033;-68
2023/05/23 05:38:29;;;;;;;4.75;1.98;;;16.20;77.40;;;;;;5029042;28;20060;-72
2023/05/23 05:40:55;;;;;;;3.70;1.95;;;16.20;77.30;;;;;;5027408;28;20452;-72
2023/05/23 05:43:21;;;;;;;4.05;2.15;;;16.20;77.40;;;;;;5029596;28;20068;-72
2023/05/23 05:45:47;;;;;;;5.47;1.75;;;16.10;77.40;;;;;;5021896;28;20358;-72
2023/05/23 05:48:12;;;;;;;2.78;1.70;;;16.10;77.50;;;;;;5024539;28;20083;-72
2023/05/23 05:50:38;;;;;;;6.88;1.88;;;16.10;77.50;;;;;;5035619;28;20056;-72
2023/05/23 05:53:04;;;;;;;1.90;1.05;;;16.10;77.40;;;;;;5032971;28;20099;-72
2023/05/23 05:55:30;;;;;;;2.75;1.40;;;16.10;77.50;;;;;;5029652;28;20109;-72
2023/05/23 05:57:55;;;;;;;2.70;2.03;;;16.10;77.40;;;;;;5025410;28;20088;-72
2023/05/23 06:00:21;;;;;;;4.35;1.85;;;16.10;77.30;;;;;;5034606;28;20125;-72
2023/05/23 06:02:47;;;;;;;7.78;2.75;;;16.10;77.30;;;;;;5033607;28;20033;-67
2023/05/23 06:05:15;;;;;;;5.60;2.35;;;16.00;77.10;;;;;;5028827;28;20034;-67
2023/05/23 06:07:41;;;;;;;5.75;2.00;;;16.00;77.10;;;;;;5026473;28;20163;-67
2023/05/23 06:10:08;;;;;;;3.25;1.33;;;16.00;77.30;;;;;;5027975;28;20025;-67
2023/05/23 06:12:34;;;;;;;4.40;2.08;;;15.90;77.30;;;;;;5027773;28;20036;-67
2023/05/23 06:15:00;;;;;;;2.45;1.60;;;15.90;77.30;;;;;;5029605;28;20366;-66
2023/05/23 06:17:26;;;;;;;2.13;1.92;;;15.90;77.40;;;;;;5037415;28;20167;-67
2023/05/23 06:19:52;;;;;;;4.30;1.40;;;15.90;77.20;;;;;;5038305;28;20389;-67
2023/05/23 06:22:18;;;;;;;3.30;1.50;;;16.00;77.10;;;;;;5036293;28;20030;-66
2023/05/23 06:24:43;;;;;;;3.78;2.15;;;15.90;76.80;;;;;;5034775;28;20172;-68
2023/05/23 06:27:09;;;;;;;4.18;1.67;;;15.90;76.70;;;;;;5026381;28;20033;-67
2023/05/23 06:29:35;;;;;;;4.25;1.75;;;15.90;76.40;;;;;;5030994;28;20022;-67
2023/05/23 06:32:01;;;;;;;3.40;1.55;;;15.80;76.30;;;;;;5030006;28;20075;-66
2023/05/23 06:34:27;;;;;;;5.47;2.17;;;15.80;76.20;;;;;;5028397;28;20056;-67
2023/05/23 06:36:53;;;;;;;7.47;1.65;;;15.80;76.20;;;;;;5026348;28;20536;-67
2023/05/23 06:39:19;;;;;;;3.85;1.77;;;15.80;75.90;;;;;;5028591;28;20041;-66
2023/05/23 06:41:46;;;;;;;3.03;1.45;;;15.70;75.60;;;;;;5029030;28;20024;-66
2023/05/23 06:44:12;;;;;;;1.95;1.40;;;15.60;75.70;;;;;;5027227;28;20041;-67
2023/05/23 06:46:37;;;;;;;3.00;1.45;;;15.60;75.80;;;;;;5027909;28;20022;-67
2023/05/23 06:49:03;;;;;;;2.55;1.90;;;15.60;75.50;;;;;;5021676;28;20049;-67
2023/05/23 06:51:28;;;;;;;3.60;2.15;;;15.60;75.50;;;;;;5012188;28;20057;-70
2023/05/23 06:53:55;;;;;;;3.13;1.52;;;15.70;75.30;;;;;;5025654;28;20396;-69
2023/05/23 06:56:22;;;;;;;2.05;1.27;;;15.70;75.00;;;;;;5025209;28;20485;-66
2023/05/23 06:58:48;;;;;;;1.50;0.93;;;15.80;74.50;;;;;;5023563;28;20033;-66
2023/05/23 07:01:13;;;;;;;2.33;1.30;;;15.70;74.20;;;;;;5024820;28;20381;-67
2023/05/23 07:03:40;;;;;;;4.30;1.08;;;15.70;74.00;;;;;;5032089;28;20048;-72
2023/05/23 07:06:07;;;;;;;4.20;1.23;;;15.70;73.90;;;;;;5029316;28;20025;-72
2023/05/23 07:08:32;;;;;;;6.05;2.15;;;15.80;73.80;;;;;;5016336;28;20029;-72
2023/05/23 07:10:58;;;;;;;2.97;1.65;;;16.00;73.40;;;;;;5024752;28;20370;-71
2023/05/23 07:13:24;;;;;;;1.67;1.15;;;16.00;73.00;;;;;;5031648;28;20543;-73
2023/05/23 07:15:49;;;;;;;5.53;2.08;;;16.10;72.90;;;;;;5040154;28;20100;-71
2023/05/23 07:18:15;;;;;;;2.58;0.93;;;16.30;72.00;;;;;;5041667;28;20045;-68
2023/05/23 07:20:41;;;;;;;2.40;1.77;;;16.40;71.10;;;;;;5041599;28;20040;-68
2023/05/23 07:23:06;;;;;;;2.53;1.40;;;16.50;70.70;;;;;;5029380;28;20335;-72
2023/05/23 07:25:32;;;;;;;5.53;1.40;;;16.60;70.70;;;;;;5038736;28;20044;-72
2023/05/23 07:27:58;;;;;;;3.38;1.80;;;16.70;71.10;;;;;;5034062;28;20024;-72
2023/05/23 07:30:24;;;;;;;1.80;0.90;;;16.80;69.90;;;;;;5019969;28;20037;-73
2023/05/23 07:32:51;;;;;;;2.53;1.23;;;16.90;68.80;;;;;;5037503;28;20450;-72
2023/05/23 07:35:17;;;;;;;5.63;1.67;;;16.90;68.50;;;;;;5038861;28;20030;-72
2023/05/23 07:37:43;;;;;;;2.83;1.45;;;16.90;67.90;;;;;;5029377;28;20425;-72
2023/05/23 07:40:09;;;;;;;2.60;1.48;;;16.80;67.70;;;;;;5029091;28;20017;-71
2023/05/23 07:42:36;;;;;;;1.83;1.33;;;16.70;67.50;;;;;;5041565;28;20049;-67
2023/05/23 07:45:02;;;;;;;2.47;1.42;;;16.70;67.30;;;;;;5035785;28;20428;-68
2023/05/23 07:47:27;;;;;;;2.03;1.40;;;16.70;67.20;;;;;;5030037;28;20041;-67
2023/05/23 07:49:53;;;;;;;2.00;1.13;;;16.70;67.30;;;;;;5026104;28;20535;-72
2023/05/23 07:52:19;;;;;;;2.38;1.25;;;16.80;66.50;;;;;;5038642;28;20103;-71
2023/05/23 07:54:45;;;;;;;3.13;1.52;;;16.80;66.50;;;;;;5024224;28;20457;-72
2023/05/23 07:57:11;;;;;;;1.10;0.98;;;17.00;66.30;;;;;;5033322;28;20033;-67
2023/05/23 07:59:37;;;;;;;1.42;1.08;;;17.20;66.10;;;;;;5026342;28;20037;-67
2023/05/23 08:02:03;;;;;;;3.92;1.85;;;17.30;65.70;;;;;;5061635;28;20354;-72
2023/05/23 08:04:29;;;;;;;6.68;1.20;;;17.40;65.00;;;;;;5026596;28;20029;-73
2023/05/23 08:06:55;;;;;;;2.15;1.15;;;17.30;64.90;;;;;;5032366;28;20453;-67
2023/05/23 08:09:22;;;;;;;1.40;0.73;;;17.30;65.00;;;;;;5030521;28;20052;-70
2023/05/23 08:11:48;;;;;;;1.20;1.10;;;17.20;65.10;;;;;;5036293;28;20017;-70
2023/05/23 08:14:13;;;;;;;1.23;1.10;;;17.20;65.20;;;;;;5031899;28;20121;-73
2023/05/23 08:16:39;;;;;;;3.42;1.60;;;17.10;65.30;;;;;;5032108;28;20508;-72
2023/05/23 08:19:05;;;;;;;3.95;1.38;;;17.10;65.60;;;;;;5032474;28;20084;-72
2023/05/23 08:21:31;;;;;;;4.93;1.60;;;16.90;66.00;;;;;;5031339;28;20029;-72
2023/05/23 08:23:57;;;;;;;2.75;0.93;;;16.80;66.50;;;;;;5032440;28;20109;-73
2023/05/23 08:26:22;;;;;;;4.18;1.73;;;16.70;66.60;;;;;;5029235;28;20029;-73
2023/05/23 08:28:48;;;;;;;3.63;1.27;;;16.70;66.60;;;;;;5029442;28;20026;-66
2023/05/23 08:31:14;;;;;;;1.13;0.90;;;16.80;66.40;;;;;;5022026;28;20543;-71
2023/05/23 08:33:39;;;;;;;4.57;1.02;;;17.00;66.40;;;;;;5027067;28;20067;-68
2023/05/23 08:36:05;;;;;;;6.40;0.80;;;17.20;66.50;;;;;;5032995;28;20033;-70
2023/05/23 08:38:31;;;;;;;0.88;0.70;;;17.30;65.50;;;;;;5032189;28;20056;-71
2023/05/23 08:41:00;;;;;;;1.58;0.95;;;17.40;65.30;;;;;;5023219;28;20401;-70
2023/05/23 08:43:26;;;;;;;1.75;0.90;;;17.60;64.50;;;;;;5017530;28;20026;-71
2023/05/23 08:45:52;;;;;;;2.50;1.10;;;17.60;64.20;;;;;;5010308;28;20045;-70
2023/05/23 08:48:19;;;;;;;2.58;1.02;;;17.70;63.50;;;;;;5023183;28;20071;-71
2023/05/23 08:50:47;;;;;;;5.13;1.33;;;17.90;63.10;;;;;;5032646;28;20403;-69
2023/05/23 08:53:19;;;;;;;2.33;1.30;;;18.10;63.00;;;;;;5030929;28;20021;-68
2023/05/23 08:55:50;;;;;;;5.97;1.23;;;18.30;62.10;;;;;;5031433;28;20030;-67
2023/05/23 08:58:19;;;;;;;6.40;1.15;;;18.40;60.80;;;;;;5025883;28;20052;-67
2023/05/23 09:00:46;;;;;;;3.25;0.75;;;18.30;60.30;;;;;;5024323;28;20029;-68
2023/05/23 09:03:13;;;;;;;1.35;0.88;;;18.20;61.40;;;;;;5025302;28;20143;-68
2023/05/23 09:05:39;;;;;;;3.85;0.88;;;18.10;60.90;;;;;;5028892;28;20116;-67
2023/05/23 09:08:04;;;;;;;0.85;0.73;;;18.00;61.20;;;;;;5029932;28;20112;-67
2023/05/23 09:10:30;;;;;;;3.05;1.00;;;17.90;61.10;;;;;;5027717;28;20058;-67
2023/05/23 09:12:57;;;;;;;3.65;1.27;;;17.80;61.60;;;;;;5032383;28;20083;-70
2023/05/23 09:15:23;;;;;;;5.22;1.23;;;17.80;61.20;;;;;;5030843;28;20083;-70
2023/05/23 09:17:49;;;;;;;1.95;1.13;;;17.90;61.60;;;;;;5034704;28;20099;-68
2023/05/23 09:20:17;;;;;;;3.75;1.23;;;17.90;61.50;;;;;;5025802;28;20038;-67
2023/05/23 09:22:48;;;;;;;5.20;1.05;;;17.90;61.00;;;;;;5026244;28;20017;-70
2023/05/23 09:25:14;;;;;;;1.08;0.57;;;17.90;60.60;;;;;;5036747;28;20040;-70
2023/05/23 09:27:40;;;;;;;3.90;1.67;;;17.90;61.10;;;;;;5029366;28;20025;-70
2023/05/23 09:30:08;;;;;;;3.28;1.10;;;18.00;60.90;;;;;;5042754;28;20365;-70
2023/05/23 09:32:33;;;;;;;3.28;1.40;;;18.10;60.10;;;;;;5038903;28;20018;-70
2023/05/23 09:35:03;;;;;;;4.60;1.10;;;18.10;60.20;;;;;;5043191;28;20040;-70
2023/05/23 09:37:38;;;;;;;2.72;1.00;;;18.10;60.30;;;;;;5040834;28;20456;-70
2023/05/23 09:40:12;;;;;;;2.20;1.05;;;18.30;60.10;;;;;;5033362;28;20468;-70
2023/05/23 09:42:43;;;;;;;0.90;0.80;;;18.40;59.80;;;;;;5013698;28;20102;-70
2023/05/23 09:45:09;;;;;;;4.25;1.35;;;18.50;59.80;;;;;;5029103;28;20464;-67
2023/05/23 09:47:35;;;;;;;1.38;0.90;;;18.60;58.70;;;;;;5028326;28;20025;-67
2023/05/23 09:50:00;;;;;;;1.73;1.05;;;18.60;58.50;;;;;;5037974;28;20032;-70
2023/05/23 09:52:26;;;;;;;2.10;0.85;;;18.70;58.80;;;;;;5042267;28;20036;-70
2023/05/23 09:54:53;;;;;;;7.20;1.02;;;18.90;58.50;;;;;;5039455;28;20037;-68
2023/05/23 09:57:22;;;;;;;2.35;0.80;;;19.10;58.50;;;;;;5030945;28;20025;-70
2023/05/23 09:59:57;;;;;;;1.92;1.00;;;19.20;56.40;;;;;;5042944;28;20090;-70
2023/05/23 10:03:06;;;;;;;2.67;0.98;;;19.00;56.70;;;;;;5043035;28;20151;-70
2023/05/23 10:05:42;;;;;;;3.55;1.45;;;18.80;56.70;;;;;;5034369;28;20029;-70
2023/05/23 10:08:35;;;;;;;1.98;0.80;;;18.70;57.10;;;;;;5023541;28;20488;-70
2023/05/23 10:11:12;;;;;;;4.55;1.58;;;18.50;56.70;;;;;;5023328;28;20563;-70
2023/05/23 10:13:42;;;;;;;4.00;0.88;;;18.60;57.60;;;;;;5027238;28;20568;-68
2023/05/23 10:16:18;;;;;;;6.03;1.13;;;18.70;57.80;;;;;;5028785;28;20026;-70
2023/05/23 10:18:47;;;;;;;4.93;1.10;;;18.90;57.20;;;;;;5027939;28;20538;-70
2023/05/23 10:21:23;;;;;;;3.30;0.93;;;19.00;57.10;;;;;;5030679;28;20357;-70
2023/05/23 10:23:49;;;;;;;3.50;1.30;;;19.20;57.10;;;;;;5024558;28;20061;-70
2023/05/23 10:26:16;;;;;;;1.23;0.85;;;19.40;56.20;;;;;;5005568;28;21544;-68
2023/05/23 10:28:45;;;;;;;1.63;0.77;;;19.60;55.80;;;;;;5029192;28;20049;-68
2023/05/23 10:31:11;;;;;;;0.88;0.70;;;19.90;55.80;;;;;;5029617;28;20521;-68
2023/05/23 10:33:45;;;;;;;2.08;0.98;;;20.20;55.40;;;;;;5030603;28;20037;-68
2023/05/23 10:36:21;;;;;;;2.20;0.75;;;20.30;55.10;;;;;;5029713;28;20060;-68
2023/05/23 10:38:49;;;;;;;1.77;0.90;;;20.20;54.40;;;;;;5016229;28;20036;-70
2023/05/23 10:41:27;;;;;;;4.97;1.15;;;20.20;54.20;;;;;;5026722;28;20108;-70
2023/05/23 10:44:05;;;;;;;3.85;1.23;;;20.20;53.70;;;;;;5026594;28;20452;-70
2023/05/23 10:46:54;;;;;;;2.35;0.75;;;20.10;53.50;;;;;;5026343;28;20461;-68
2023/05/23 10:49:21;;;;;;;4.10;1.13;;;20.00;53.90;;;;;;5025300;28;20028;-67
2023/05/23 10:51:53;;;;;;;3.42;0.93;;;20.10;53.90;;;;;;5027277;28;20076;-71
2023/05/23 10:54:19;;;;;;;3.63;1.13;;;20.10;53.60;;;;;;5029684;28;20041;-71
2023/05/23 10:56:45;;;;;;;1.83;1.00;;;20.30;53.50;;;;;;5029085;28;20116;-68
2023/05/23 10:59:21;;;;;;;3.80;1.17;;;20.60;52.80;;;;;;5027447;28;20035;-67
2023/05/23 11:01:51;;;;;;;1.05;0.80;;;20.80;51.50;;;;;;5022384;28;20064;-68
2023/05/23 11:04:44;;;;;;;4.15;1.27;;;20.70;50.30;;;;;;5028464;28;20029;-68
2023/05/23 11:07:32;;;;;;;1.50;1.00;;;20.70;51.00;;;;;;5026677;28;20052;-68
2023/05/23 11:10:07;;;;;;;5.13;0.90;;;20.80;51.00;;;;;;5024052;28;20409;-68
2023/05/23 11:12:41;;;;;;;3.28;0.73;;;20.80;51.10;;;;;;5025021;28;20016;-67
2023/05/23 11:15:22;;;;;;;4.25;1.25;;;21.00;50.90;;;;;;5026030;28;20484;-68
2023/05/23 11:17:53;;;;;;;2.65;0.75;;;21.10;50.70;;;;;;5027597;28;20056;-68
2023/05/23 11:20:24;;;;;;;2.08;0.80;;;21.10;50.80;;;;;;5023124;28;20048;-67
2023/05/23 11:22:59;;;;;;;1.38;0.55;;;21.00;50.80;;;;;;5024362;28;20033;-68
2023/05/23 11:25:54;;;;;;;1.15;0.77;;;20.80;51.40;;;;;;5025267;28;20029;-68
2023/05/23 11:28:20;;;;;;;1.00;0.63;;;20.70;51.00;;;;;;5020176;28;20025;-70
2023/05/23 11:30:48;;;;;;;1.42;0.73;;;20.50;51.30;;;;;;5028605;28;20526;-70
2023/05/23 11:33:16;;;;;;;6.40;1.20;;;20.40;50.80;;;;;;5031049;28;20049;-70
2023/05/23 11:35:46;;;;;;;2.92;1.25;;;20.30;51.10;;;;;;5021330;28;20123;-70
2023/05/23 11:38:14;;;;;;;2.13;0.80;;;20.50;50.30;;;;;;5017714;28;20040;-68
2023/05/23 11:40:42;;;;;;;1.65;1.20;;;20.60;50.00;;;;;;5020625;28;20036;-68
2023/05/23 11:43:18;;;;;;;1.63;0.47;;;20.70;50.30;;;;;;5023826;28;20061;-70
2023/05/23 11:45:47;;;;;;;6.95;1.15;;;20.70;50.30;;;;;;5056075;28;21189;-67
2023/05/23 11:48:15;;;;;;;3.33;0.95;;;20.70;50.20;;;;;;5023657;28;20037;-67
2023/05/23 11:50:47;;;;;;;1.10;0.90;;;20.70;50.40;;;;;;5028960;28;20034;-70
2023/05/23 11:53:16;;;;;;;3.35;0.88;;;20.70;49.50;;;;;;5027073;28;20096;-68
2023/05/23 11:55:52;;;;;;;7.20;1.23;;;20.60;49.20;;;;;;5024606;28;20053;-67
2023/05/23 11:58:19;;;;;;;2.35;0.98;;;20.60;49.50;;;;;;5026966;28;20473;-68
2023/05/23 12:00:45;;;;;;;2.03;1.00;;;20.50;49.50;;;;;;5028424;28;20037;-70
2023/05/23 12:03:11;;;;;;;1.58;0.73;;;20.40;49.60;;;;;;5028964;28;20037;-68
2023/05/23 12:05:37;;;;;;;1.75;1.08;;;20.50;50.20;;;;;;5024136;28;20025;-70
2023/05/23 12:08:02;;;;;;;2.42;1.17;;;20.50;50.00;;;;;;5024150;28;20030;-67
2023/05/23 12:10:28;;;;;;;3.17;0.80;;;20.50;49.90;;;;;;5024985;28;20022;-69
2023/05/23 12:12:54;;;;;;;1.05;0.95;;;20.50;50.00;;;;;;5022235;28;20060;-70
2023/05/23 12:15:26;;;;;;;1.08;0.75;;;20.50;50.30;;;;;;5023910;28;20036;-70
2023/05/23 12:17:53;;;;;;;1.92;0.60;;;20.60;50.10;;;;;;5028101;28;20064;-67
2023/05/23 12:20:20;;;;;;;0.85;0.63;;;20.70;49.60;;;;;;5022744;28;20033;-67
2023/05/23 12:22:45;;;;;;;1.92;1.02;;;20.60;49.10;;;;;;5028599;28;20056;-67
2023/05/23 12:25:11;;;;;;;1.30;0.65;;;20.50;49.00;;;;;;5018385;28;20045;-69
2023/05/23 12:27:42;;;;;;;6.72;1.33;;;20.50;49.00;;;;;;5025922;28;20036;-67
2023/05/23 12:30:12;;;;;;;1.75;0.70;;;20.60;49.50;;;;;;5025413;28;20032;-69
2023/05/23 12:32:42;;;;;;;0.55;0.55;;;20.90;48.60;;;;;;5024320;28;20099;-69
2023/05/23 12:35:13;;;;;;;2.97;0.80;;;21.10;47.50;;;;;;5021852;28;20131;-69
2023/05/23 12:37:47;;;;;;;1.38;0.70;;;21.40;47.20;;;;;;5024607;28;20109;-67
2023/05/23 12:40:18;;;;;;;2.65;1.13;;;21.60;47.60;;;;;;5024760;28;20072;-67
2023/05/23 12:42:55;;;;;;;0.80;0.60;;;21.70;47.10;;;;;;5024778;28;20065;-66
2023/05/23 12:45:22;;;;;;;3.15;1.08;;;21.50;47.00;;;;;;5016888;28;20035;-69
2023/05/23 12:47:48;;;;;;;1.85;0.50;;;21.20;47.80;;;;;;5028635;28;20025;-70
2023/05/23 12:50:14;;;;;;;3.42;0.70;;;21.20;47.70;;;;;;5025901;28;20052;-68
2023/05/23 12:52:40;;;;;;;1.48;0.90;;;21.10;47.30;;;;;;5026504;28;20036;-67